createdAt,value
2018-07-05T00:00:54.427Z,97707.39
2018-07-05T00:03:34.301Z,97708.13
2018-07-05T00:06:14.070Z,97704.33
2018-07-05T00:08:53.947Z,97700.17
2018-07-05T00:11:33.723Z,97696.08
2018-07-05T00:14:13.860Z,97691.39
2018-07-05T00:16:53.599Z,97695.84
2018-07-05T00:19:33.547Z,97694.35
2018-07-05T00:22:13.338Z,97693.72
2018-07-05T00:24:52.997Z,97693.23
2018-07-05T00:27:32.852Z,97694.77
2018-07-05T00:30:12.827Z,97684.69
2018-07-05T00:32:52.574Z,97687.95
2018-07-05T00:35:32.538Z,97687.75
2018-07-05T00:38:12.386Z,97697.11
2018-07-05T00:40:52.501Z,97707.69
2018-07-05T00:43:32.408Z,97698.84
2018-07-05T00:46:12.190Z,97702.24
2018-07-05T00:48:51.858Z,97697.50
2018-07-05T00:51:31.731Z,97692.66
2018-07-05T00:54:11.540Z,97699.72
2018-07-05T00:56:51.383Z,97696.56
2018-07-05T00:59:31.161Z,97695.19
2018-07-05T01:02:11.059Z,97690.45
2018-07-05T01:04:50.742Z,97686.22
2018-07-05T01:07:30.805Z,97687.66
2018-07-05T01:10:10.526Z,97689.03
2018-07-05T01:12:50.404Z,97679.03
2018-07-05T01:15:30.528Z,97680.89
2018-07-05T01:18:10.360Z,97678.89
2018-07-05T01:20:50.339Z,97672.55
2018-07-05T01:23:30.262Z,97673.11
2018-07-05T01:26:10.034Z,97679.95
2018-07-05T01:28:50.029Z,97677.70
2018-07-05T01:31:29.869Z,97667.78
2018-07-05T01:34:09.662Z,97666.63
2018-07-05T01:36:49.467Z,97669.36
2018-07-05T01:39:29.219Z,97666.63
2018-07-05T01:42:08.911Z,97662.31
2018-07-05T01:44:48.740Z,97671.82
2018-07-05T01:47:28.500Z,97661.25
2018-07-05T01:50:08.334Z,97658.28
2018-07-05T01:52:48.252Z,97655.48
2018-07-05T01:55:28.036Z,97657.58
2018-07-05T01:58:07.815Z,97646.56
2018-07-05T02:00:48.088Z,97650.23
2018-07-05T02:03:27.720Z,97647.78
2018-07-05T02:06:07.657Z,97652.24
2018-07-05T02:08:47.333Z,97658.70
2018-07-05T02:11:27.430Z,97662.34
2018-07-05T02:14:07.455Z,97674.36
2018-07-05T02:16:47.237Z,97674.34
2018-07-05T02:19:27.154Z,97677.00
2018-07-05T02:22:07.193Z,97682.46
2018-07-05T02:24:47.117Z,97684.71
2018-07-05T02:27:26.889Z,97682.77
2018-07-05T02:30:06.853Z,97684.13
2018-07-05T02:32:46.789Z,97683.83
2018-07-05T02:35:26.654Z,97678.88
2018-07-05T02:38:11.787Z,97675.63
2018-07-05T02:40:51.699Z,97675.42
2018-07-05T02:43:31.589Z,97675.78
2018-07-05T02:46:11.857Z,97683.45
2018-07-05T02:48:51.746Z,97682.13
2018-07-05T02:51:31.575Z,97680.48
2018-07-05T02:54:11.324Z,97672.05
2018-07-05T02:56:51.144Z,97675.66
2018-07-05T02:59:31.300Z,97682.49
2018-07-05T03:02:11.146Z,97683.89
2018-07-05T03:04:51.139Z,97681.84
2018-07-05T03:07:30.980Z,97681.12
2018-07-05T03:10:11.209Z,97681.34
2018-07-05T03:12:50.919Z,97671.34
2018-07-05T03:15:30.872Z,97669.77
2018-07-05T03:18:11.224Z,97672.50
2018-07-05T03:20:51.210Z,97669.23
2018-07-05T03:23:31.114Z,97675.31
2018-07-05T03:26:10.765Z,97680.09
2018-07-05T03:28:50.569Z,97687.73
2018-07-05T03:31:30.309Z,97686.52
2018-07-05T03:34:10.190Z,97684.44
2018-07-05T03:36:50.064Z,97689.42
2018-07-05T03:39:30.038Z,97688.70
2018-07-05T03:42:09.827Z,97686.69
2018-07-05T03:44:49.825Z,97687.91
2018-07-05T03:47:30.012Z,97687.12
2018-07-05T03:50:10.345Z,97685.40
2018-07-05T03:52:50.220Z,97682.67
2018-07-05T03:55:30.190Z,97679.58
2018-07-05T03:58:10.028Z,97687.37
2018-07-05T04:00:49.825Z,97691.92
2018-07-05T04:03:29.921Z,97695.20
2018-07-05T04:06:09.949Z,97688.38
2018-07-05T04:08:49.723Z,97689.48
2018-07-05T04:11:29.862Z,97684.91
2018-07-05T04:14:10.017Z,97688.10
2018-07-05T04:16:49.692Z,97691.36
2018-07-05T04:19:29.574Z,97686.54
2018-07-05T04:22:09.386Z,97682.75
2018-07-05T04:24:49.154Z,97684.34
2018-07-05T04:27:28.887Z,97695.27
2018-07-05T04:30:08.657Z,97692.18
2018-07-05T04:32:48.419Z,97694.91
2018-07-05T04:35:28.081Z,97696.66
2018-07-05T04:38:08.029Z,97693.44
2018-07-05T04:40:47.902Z,97698.48
2018-07-05T04:43:27.492Z,97691.30
2018-07-05T04:46:07.145Z,97694.17
2018-07-05T04:48:46.857Z,97696.20
2018-07-05T04:51:26.727Z,97691.52
2018-07-05T04:54:06.447Z,97689.73
2018-07-05T04:56:46.063Z,97688.94
2018-07-05T04:59:26.313Z,97684.74
2018-07-05T05:02:06.082Z,97678.75
2018-07-05T05:04:45.875Z,97678.74
2018-07-05T05:07:25.629Z,97671.70
2018-07-05T05:10:05.484Z,97671.49
2018-07-05T05:12:45.271Z,97669.38
2018-07-05T05:15:25.296Z,97666.34
2018-07-05T05:18:05.132Z,97669.09
2018-07-05T05:20:44.996Z,97662.66
2018-07-05T05:23:24.907Z,97666.63
2018-07-05T05:26:04.579Z,97668.61
2018-07-05T05:28:44.519Z,97676.43
2018-07-05T05:31:24.293Z,97672.11
2018-07-05T05:34:04.103Z,97673.15
2018-07-05T05:36:43.917Z,97670.11
2018-07-05T05:39:23.547Z,97668.47
2018-07-05T05:42:03.327Z,97665.45
2018-07-05T05:44:43.385Z,97667.82
2018-07-05T05:47:23.300Z,97666.63
2018-07-05T05:50:03.367Z,97674.98
2018-07-05T05:52:43.375Z,97673.59
2018-07-05T05:55:23.234Z,97669.22
2018-07-05T05:58:03.039Z,97667.33
2018-07-05T06:00:43.207Z,97668.53
2018-07-05T06:03:23.125Z,97665.30
2018-07-05T06:06:03.542Z,97660.36
2018-07-05T06:08:43.422Z,97661.92
2018-07-05T06:11:23.464Z,97657.03
2018-07-05T06:14:03.418Z,97658.77
2018-07-05T06:16:43.207Z,97653.19
2018-07-05T06:19:23.621Z,97662.00
2018-07-05T06:22:03.768Z,97663.90
2018-07-05T06:24:43.692Z,97662.84
2018-07-05T06:27:23.523Z,97667.17
2018-07-05T06:30:03.325Z,97672.38
2018-07-05T06:32:42.965Z,97670.25
2018-07-05T06:35:22.734Z,97672.06
2018-07-05T06:38:02.723Z,97673.12
2018-07-05T06:40:42.786Z,97669.94
2018-07-05T06:43:22.711Z,97672.73
2018-07-05T06:46:03.151Z,97669.40
2018-07-05T06:48:42.950Z,97653.95
2018-07-05T06:51:22.683Z,97647.91
2018-07-05T06:54:02.391Z,97648.55
2018-07-05T06:56:42.298Z,97647.20
2018-07-05T06:59:21.962Z,97650.77
2018-07-05T07:02:01.773Z,97650.60
2018-07-05T07:04:41.565Z,97655.75
2018-07-05T07:07:21.379Z,97657.12
2018-07-05T07:10:01.570Z,97654.77
2018-07-05T07:12:41.257Z,97646.31
2018-07-05T07:15:21.039Z,97642.75
2018-07-05T07:18:00.599Z,97639.41
2018-07-05T07:20:40.504Z,97643.94
2018-07-05T07:23:20.759Z,97643.19
2018-07-05T07:26:00.485Z,97638.27
2018-07-05T07:28:40.481Z,97633.34
2018-07-05T07:31:21.191Z,97631.55
2018-07-05T07:34:01.803Z,97629.18
2018-07-05T07:36:41.981Z,97635.47
2018-07-05T07:39:21.693Z,97634.25
2018-07-05T07:41:50.642Z,97640.53
2018-07-05T07:44:19.402Z,97647.83
2018-07-05T07:46:47.646Z,97643.81
2018-07-05T07:49:16.169Z,97644.57
2018-07-05T07:51:43.620Z,97642.44
2018-07-05T07:54:11.021Z,97647.80
2018-07-05T07:56:38.608Z,97643.17
2018-07-05T07:59:06.181Z,97648.36
2018-07-05T08:01:34.885Z,97638.73
2018-07-05T08:04:02.530Z,97643.17
2018-07-05T08:06:30.026Z,97646.00
2018-07-05T08:08:57.585Z,97633.04
2018-07-05T08:11:25.708Z,97638.05
2018-07-05T08:13:53.155Z,97638.09
2018-07-05T08:16:20.690Z,97630.70
2018-07-05T08:18:48.319Z,97628.34
2018-07-05T08:21:15.730Z,97627.94
2018-07-05T08:23:43.248Z,97626.92
2018-07-05T08:26:10.824Z,97624.20
2018-07-05T08:28:38.379Z,97626.22
2018-07-05T08:31:05.804Z,97621.16
2018-07-05T08:33:33.506Z,97617.74
2018-07-05T08:36:00.961Z,97616.69
2018-07-05T08:38:28.623Z,97619.95
2018-07-05T08:40:56.236Z,97618.05
2018-07-05T08:43:23.685Z,97616.02
2018-07-05T08:45:51.351Z,97614.61
2018-07-05T08:48:18.986Z,97617.64
2018-07-05T08:50:46.412Z,97616.02
2018-07-05T08:53:14.027Z,97609.61
2018-07-05T08:55:41.508Z,97610.88
2018-07-05T08:58:08.929Z,97611.80
2018-07-05T09:00:36.356Z,97609.08
2018-07-05T09:03:03.971Z,97611.77
2018-07-05T09:05:31.559Z,97608.41
2018-07-05T09:07:59.133Z,97605.25
2018-07-05T09:10:26.733Z,97606.75
2018-07-05T09:12:54.350Z,97601.30
2018-07-05T09:15:21.910Z,97600.30
2018-07-05T09:17:51.434Z,97593.77
2018-07-05T09:20:18.857Z,97593.74
2018-07-05T09:22:46.354Z,97585.45
2018-07-05T09:25:13.823Z,97582.97
2018-07-05T09:27:41.343Z,97591.20
2018-07-05T09:30:09.003Z,97579.84
2018-07-05T09:32:36.610Z,97582.97
2018-07-05T09:35:04.027Z,97583.73
2018-07-05T09:37:31.484Z,97579.72
2018-07-05T09:39:58.938Z,97580.80
2018-07-05T09:42:26.458Z,97581.47
2018-07-05T09:44:54.127Z,97582.84
2018-07-05T09:47:21.785Z,97572.20
2018-07-05T09:49:49.425Z,97572.59
2018-07-05T09:52:16.844Z,97572.27
2018-07-05T09:54:44.362Z,97569.53
2018-07-05T09:57:12.048Z,97562.59
2018-07-05T09:59:40.847Z,97570.66
2018-07-05T10:02:08.381Z,97565.73
2018-07-05T10:04:36.047Z,97562.41
2018-07-05T10:07:03.457Z,97548.73
2018-07-05T10:09:30.934Z,97551.16
2018-07-05T10:11:58.456Z,97554.17
2018-07-05T10:14:25.952Z,97552.09
2018-07-05T10:16:53.529Z,97554.58
2018-07-05T10:19:21.117Z,97552.23
2018-07-05T10:21:48.715Z,97549.57
2018-07-05T10:24:16.198Z,97540.69
2018-07-05T10:26:43.820Z,97539.44
2018-07-05T10:29:23.766Z,97537.83
2018-07-05T10:32:03.836Z,97540.07
2018-07-05T10:34:31.419Z,97534.41
2018-07-05T10:36:58.943Z,97533.23
2018-07-05T10:39:26.477Z,97535.83
2018-07-05T10:42:06.225Z,97524.25
2018-07-05T10:44:46.149Z,97512.16
2018-07-05T10:47:27.010Z,97502.78
2018-07-05T10:50:07.030Z,97511.41
2018-07-05T10:52:46.916Z,97507.92
2018-07-05T10:55:26.724Z,97507.12
2018-07-05T10:58:06.967Z,97510.00
2018-07-05T11:00:46.902Z,97509.98
2018-07-05T11:03:26.752Z,97509.40
2018-07-05T11:06:06.562Z,97508.10
2018-07-05T11:08:46.439Z,97511.51
2018-07-05T11:11:26.270Z,97509.11
2018-07-05T11:14:06.265Z,97513.09
2018-07-05T11:16:46.256Z,97505.50
2018-07-05T11:19:26.345Z,97501.18
2018-07-05T11:22:06.003Z,97514.13
2018-07-05T11:24:45.939Z,97503.13
2018-07-05T11:27:25.745Z,97507.14
2018-07-05T11:30:05.677Z,97496.95
2018-07-05T11:32:45.505Z,97498.75
2018-07-05T11:35:26.393Z,97497.48
2018-07-05T11:38:05.973Z,97490.17
2018-07-05T11:40:45.920Z,97493.49
2018-07-05T11:43:25.712Z,97484.45
2018-07-05T11:46:06.090Z,97481.83
2018-07-05T11:48:45.774Z,97490.09
2018-07-05T11:51:25.578Z,97486.37
2018-07-05T11:54:05.218Z,97478.77
2018-07-05T11:56:45.219Z,97482.62
2018-07-05T11:59:25.057Z,97482.92
2018-07-05T12:02:05.106Z,97476.82
2018-07-05T12:04:45.019Z,97473.42
2018-07-05T12:07:24.938Z,97459.35
2018-07-05T12:10:04.757Z,97470.98
2018-07-05T12:12:44.780Z,97464.86
2018-07-05T12:15:24.420Z,97459.15
2018-07-05T12:18:04.470Z,97464.55
2018-07-05T12:20:44.217Z,97460.93
2018-07-05T12:23:24.147Z,97469.20
2018-07-05T12:26:03.825Z,97477.09
2018-07-05T12:28:43.866Z,97474.59
2018-07-05T12:31:23.709Z,97465.70
2018-07-05T12:34:03.497Z,97461.67
2018-07-05T12:36:43.291Z,97460.80
2018-07-05T12:39:23.102Z,97462.44
2018-07-05T12:42:02.849Z,97464.27
2018-07-05T12:44:42.829Z,97454.34
2018-07-05T12:47:22.629Z,97459.56
2018-07-05T12:50:02.751Z,97452.58
2018-07-05T12:52:42.588Z,97462.30
2018-07-05T12:55:22.271Z,97468.80
2018-07-05T12:58:02.078Z,97476.22
2018-07-05T13:00:42.774Z,97469.78
2018-07-05T13:03:22.718Z,97473.59
2018-07-05T13:06:02.598Z,97471.26
2018-07-05T13:08:42.376Z,97474.84
2018-07-05T13:11:22.321Z,97471.34
2018-07-05T13:14:02.144Z,97468.72
2018-07-05T13:16:42.470Z,97471.55
2018-07-05T13:19:22.333Z,97471.75
2018-07-05T13:22:02.334Z,97486.37
2018-07-05T13:24:42.022Z,97488.46
2018-07-05T13:27:21.705Z,97505.12
2018-07-05T13:30:01.601Z,97521.49
2018-07-05T13:32:41.405Z,97549.39
2018-07-05T13:35:21.185Z,97566.20
2018-07-05T13:38:01.237Z,97576.31
2018-07-05T13:40:41.190Z,97581.53
2018-07-05T13:43:21.031Z,97581.44
2018-07-05T13:46:00.697Z,97589.23
2018-07-05T13:48:40.386Z,97574.87
2018-07-05T13:51:20.289Z,97596.52
2018-07-05T13:53:59.936Z,97584.42
2018-07-05T13:56:39.972Z,97617.30
2018-07-05T13:59:19.792Z,97623.92
2018-07-05T14:01:59.526Z,97648.22
2018-07-05T14:04:39.382Z,97660.82
2018-07-05T14:07:19.594Z,97679.41
2018-07-05T14:09:59.314Z,97679.99
2018-07-05T14:12:38.915Z,97691.48
2018-07-05T14:15:18.622Z,97685.42
2018-07-05T14:17:58.465Z,97692.74
2018-07-05T14:20:38.098Z,97677.66
2018-07-05T14:23:18.051Z,97690.08
2018-07-05T14:25:57.916Z,97672.72
2018-07-05T14:28:37.626Z,97673.36
2018-07-05T14:31:17.574Z,97662.42
2018-07-05T14:33:57.347Z,97662.92
2018-07-05T14:36:37.121Z,97667.98
2018-07-05T14:39:17.105Z,97667.25
2018-07-05T14:41:56.859Z,97667.42
2018-07-05T14:44:36.685Z,97675.59
2018-07-05T14:47:16.352Z,97685.97
2018-07-05T14:49:56.173Z,97679.09
2018-07-05T14:52:36.097Z,97676.32
2018-07-05T14:55:18.225Z,97678.42
2018-07-05T14:58:00.696Z,97678.51
2018-07-05T15:00:40.844Z,97681.81
2018-07-05T15:03:20.614Z,97681.73
2018-07-05T15:06:00.366Z,97690.53
2018-07-05T15:08:39.986Z,97704.36
2018-07-05T15:11:19.895Z,97713.36
2018-07-05T15:13:59.657Z,97715.15
2018-07-05T15:16:39.621Z,97720.96
2018-07-05T15:19:19.886Z,97724.13
2018-07-05T15:21:59.494Z,97722.12
2018-07-05T15:24:39.291Z,97722.75
2018-07-05T15:27:19.061Z,97731.90
2018-07-05T15:29:58.799Z,97741.68
2018-07-05T15:32:38.446Z,97736.18
2018-07-05T15:35:18.286Z,97743.93
2018-07-05T15:37:57.955Z,97758.15
2018-07-05T15:40:37.783Z,97757.48
2018-07-05T15:43:17.592Z,97762.22
2018-07-05T15:45:57.451Z,97761.42
2018-07-05T15:48:37.286Z,97760.63
2018-07-05T15:51:17.137Z,97745.59
2018-07-05T15:53:57.076Z,97742.50
2018-07-05T15:56:37.178Z,97736.12
2018-07-05T15:59:16.893Z,97728.22
2018-07-05T16:01:56.713Z,97726.88
2018-07-05T16:04:36.537Z,97723.56
2018-07-05T16:07:17.387Z,97721.50
2018-07-05T16:09:57.203Z,97716.23
2018-07-05T16:12:36.922Z,97715.61
2018-07-05T16:15:16.735Z,97714.80
2018-07-05T16:17:56.665Z,97713.34
2018-07-05T16:20:36.665Z,97726.66
2018-07-05T16:23:16.443Z,97728.41
2018-07-05T16:25:56.109Z,97729.39
2018-07-05T16:28:35.966Z,97732.45
2018-07-05T16:31:16.025Z,97731.08
2018-07-05T16:33:55.966Z,97716.34
2018-07-05T16:36:35.938Z,97721.53
2018-07-05T16:39:15.871Z,97707.11
2018-07-05T16:41:55.836Z,97702.88
2018-07-05T16:44:35.743Z,97707.77
2018-07-05T16:47:15.564Z,97707.73
2018-07-05T16:49:55.339Z,97707.13
2018-07-05T16:52:35.230Z,97706.41
2018-07-05T16:55:15.010Z,97704.95
2018-07-05T16:57:54.729Z,97701.34
2018-07-05T17:00:34.630Z,97704.92
2018-07-05T17:03:14.366Z,97699.95
2018-07-05T17:05:54.071Z,97692.66
2018-07-05T17:08:33.861Z,97694.69
2018-07-05T17:11:13.728Z,97692.60
2018-07-05T17:13:53.514Z,97696.81
2018-07-05T17:16:33.313Z,97701.41
2018-07-05T17:19:13.011Z,97702.27
2018-07-05T17:21:52.771Z,97704.56
2018-07-05T17:24:32.541Z,97705.74
2018-07-05T17:27:12.376Z,97702.22
2018-07-05T17:29:52.190Z,97700.51
2018-07-05T17:32:31.905Z,97697.11
2018-07-05T17:35:11.672Z,97703.74
2018-07-05T17:37:51.507Z,97702.30
2018-07-05T17:40:31.358Z,97706.90
2018-07-05T17:43:11.189Z,97706.79
2018-07-05T17:45:51.348Z,97709.34
2018-07-05T17:48:31.298Z,97710.38
2018-07-05T17:51:11.196Z,97711.95
2018-07-05T17:53:51.181Z,97711.45
2018-07-05T17:56:30.985Z,97717.98
2018-07-05T17:59:10.698Z,97715.45
2018-07-05T18:01:50.631Z,97721.87
2018-07-05T18:04:30.489Z,97716.03
2018-07-05T18:07:10.328Z,97711.22
2018-07-05T18:09:50.110Z,97714.55
2018-07-05T18:12:29.857Z,97709.81
2018-07-05T18:15:09.547Z,97709.61
2018-07-05T18:17:52.588Z,97701.48
2018-07-05T18:20:32.683Z,97698.32
2018-07-05T18:23:12.463Z,97702.66
2018-07-05T18:25:52.217Z,97699.16
2018-07-05T18:28:31.927Z,97697.79
2018-07-05T18:31:11.939Z,97700.03
2018-07-05T18:33:51.839Z,97698.95
2018-07-05T18:36:31.394Z,97699.59
2018-07-05T18:39:11.240Z,97695.16
2018-07-05T18:41:51.082Z,97695.24
2018-07-05T18:44:31.106Z,97700.59
2018-07-05T18:47:10.922Z,97703.12
2018-07-05T18:49:50.717Z,97700.77
2018-07-05T18:52:30.405Z,97698.46
2018-07-05T18:55:10.461Z,97706.09
2018-07-05T18:57:50.192Z,97716.19
2018-07-05T19:00:30.310Z,97715.68
2018-07-05T19:03:10.197Z,97719.88
2018-07-05T19:05:50.179Z,97730.81
2018-07-05T19:08:29.947Z,97728.44
2018-07-05T19:11:09.979Z,97732.90
2018-07-05T19:13:49.671Z,97732.48
2018-07-05T19:16:29.650Z,97734.84
2018-07-05T19:19:09.437Z,97738.58
2018-07-05T19:21:49.436Z,97739.67
2018-07-05T19:24:29.231Z,97744.47
2018-07-05T19:27:09.007Z,97748.64
2018-07-05T19:29:49.025Z,97749.06
2018-07-05T19:32:28.848Z,97753.31
2018-07-05T19:35:08.505Z,97753.03
2018-07-05T19:37:48.406Z,97757.84
2018-07-05T19:40:28.489Z,97757.55
2018-07-05T19:43:08.217Z,97760.63
2018-07-05T19:45:47.929Z,97766.41
2018-07-05T19:48:27.782Z,97770.52
2018-07-05T19:51:07.615Z,97765.67
2018-07-05T19:53:47.565Z,97770.08
2018-07-05T19:56:27.409Z,97773.09
2018-07-05T19:59:07.361Z,97768.98
2018-07-05T20:01:47.231Z,97769.78
2018-07-05T20:04:26.992Z,97765.89
2018-07-05T20:07:06.939Z,97762.45
2018-07-05T20:09:46.774Z,97766.19
2018-07-05T20:12:26.494Z,97763.45
2018-07-05T20:15:06.386Z,97764.33
2018-07-05T20:17:46.057Z,97767.98
2018-07-05T20:20:26.024Z,97773.60
2018-07-05T20:23:05.956Z,97769.72
2018-07-05T20:25:45.936Z,97779.08
2018-07-05T20:28:25.814Z,97775.03
2018-07-05T20:31:05.690Z,97780.38
2018-07-05T20:33:45.557Z,97777.92
2018-07-05T20:36:25.369Z,97779.71
2018-07-05T20:39:06.076Z,97787.65
2018-07-05T20:41:45.990Z,97779.66
2018-07-05T20:44:25.714Z,97782.39
2018-07-05T20:47:05.492Z,97781.02
2018-07-05T20:49:45.265Z,97780.22
2018-07-05T20:52:25.077Z,97780.50
2018-07-05T20:55:04.840Z,97780.81
2018-07-05T20:57:44.718Z,97785.04
2018-07-05T21:00:24.590Z,97783.39
2018-07-05T21:03:04.390Z,97788.92
2018-07-05T21:05:44.249Z,97785.55
2018-07-05T21:08:24.071Z,97784.98
2018-07-05T21:11:03.885Z,97790.74
2018-07-05T21:13:43.651Z,97790.87
2018-07-05T21:16:23.332Z,97794.61
2018-07-05T21:19:03.164Z,97794.34
2018-07-05T21:21:42.874Z,97796.65
2018-07-05T21:24:22.703Z,97801.02
2018-07-05T21:27:02.930Z,97796.19
2018-07-05T21:29:42.699Z,97800.38
2018-07-05T21:32:22.447Z,97798.37
2018-07-05T21:35:02.252Z,97803.76
2018-07-05T21:37:42.220Z,97810.23
2018-07-05T21:40:22.211Z,97807.28
2018-07-05T21:43:02.022Z,97810.11
2018-07-05T21:45:41.998Z,97814.34
2018-07-05T21:48:21.873Z,97810.17
2018-07-05T21:51:01.739Z,97809.66
2018-07-05T21:53:41.658Z,97810.17
2018-07-05T21:56:21.465Z,97815.80
2018-07-05T21:59:01.395Z,97814.06
2018-07-05T22:01:41.326Z,97820.81
2018-07-05T22:04:21.102Z,97818.06
2018-07-05T22:07:00.740Z,97822.17
2018-07-05T22:09:40.624Z,97811.59
2018-07-05T22:12:20.401Z,97814.97
2018-07-05T22:15:00.247Z,97814.71
2018-07-05T22:17:45.271Z,97819.39
2018-07-05T22:20:30.155Z,97816.72
2018-07-05T22:23:15.199Z,97815.30
2018-07-05T22:26:00.179Z,97819.08
2018-07-05T22:28:45.260Z,97818.33
2018-07-05T22:31:30.160Z,97806.34
2018-07-05T22:34:09.939Z,97814.23
2018-07-05T22:36:49.691Z,97807.99
2018-07-05T22:39:29.586Z,97813.87
2018-07-05T22:42:09.469Z,97818.58
2018-07-05T22:44:49.281Z,97814.22
2018-07-05T22:47:29.506Z,97815.24
2018-07-05T22:50:09.332Z,97810.75
2018-07-05T22:52:49.312Z,97813.11
2018-07-05T22:55:29.029Z,97817.33
2018-07-05T22:58:08.754Z,97820.85
2018-07-05T23:00:48.645Z,97813.69
2018-07-05T23:03:28.444Z,97821.73
2018-07-05T23:06:08.233Z,97815.86
2018-07-05T23:08:48.031Z,97817.91
2018-07-05T23:11:27.901Z,97814.17
2018-07-05T23:14:07.734Z,97809.92
2018-07-05T23:16:47.561Z,97812.75
2018-07-05T23:19:27.363Z,97807.91
2018-07-05T23:22:07.087Z,97806.23
2018-07-05T23:24:47.006Z,97809.82
2018-07-05T23:27:27.466Z,97812.15
2018-07-05T23:30:07.224Z,97808.75
2018-07-05T23:32:47.622Z,97808.34
2018-07-05T23:35:27.535Z,97814.09
2018-07-05T23:38:07.374Z,97815.86
2018-07-05T23:40:47.088Z,97816.66
2018-07-05T23:43:27.265Z,97819.02
2018-07-05T23:46:07.298Z,97822.98
2018-07-05T23:48:47.320Z,97826.93
2018-07-05T23:51:27.206Z,97820.34
2018-07-05T23:54:07.266Z,97822.23
2018-07-05T23:56:47.735Z,97827.44
2018-07-05T23:59:27.982Z,97824.20
